DLH767 EDDF-VABB
Flight info
| Callsign | DLH767 |
|---|---|
| Flight time | N/A |
| Altitude | 31000 |
| Route | SULUS4D SULUS Z650 VEMUT/N0470F350 DCT ROMIS DCT SLC DCT PITOK DCT SAT DCT EDETA DCT BALIK/N0465F370 DCT IVGOT T68 RIXEN UG1 IST UT35 AYT UA16 TOMBI DCT PEDER M855 RASDA A16 CVO L315 HGD M872 TULOK/N0477F390 M872 PMA Y214 RAPMA DCT MEVDO DCT ALROK DCT DEBIN DCT MIDGU M440 TULBU N881 AMBOS M700 PARAR N571 SUGID KETOR2A |
| Aircraft | A343/H-SDE2E3FGHIJ4J5M1RWXY/LB1D1 |
Departure
| Time | N/A |
|---|---|
| Airport | Frankfurt Main Airport (EDDF) |
Arrival
| Time | 2026-04-27 04:01 |
|---|---|
| Airport | Chhatrapati Shivaji Maharaj International Airport (VABB) |
| Time | Latitude | Longitude | Altitude | Speed | Heading |
|---|---|---|---|---|---|
| 2026-04-27 02:20 | 22.89649 | 60.77495 | 38794 ft | 512 kts | 98° |
| 2026-04-27 02:20 | 22.88238 | 60.85056 | 38796 ft | 512 kts | 98° |
| 2026-04-27 02:21 | 22.86832 | 60.92574 | 38795 ft | 512 kts | 98° |
| 2026-04-27 02:21 | 22.85415 | 61.00127 | 38800 ft | 512 kts | 98° |
| 2026-04-27 02:22 | 22.83994 | 61.07682 | 38803 ft | 512 kts | 98° |
| 2026-04-27 02:22 | 22.82569 | 61.15239 | 38802 ft | 511 kts | 98° |
| 2026-04-27 02:23 | 22.81151 | 61.22736 | 38794 ft | 511 kts | 98° |
| 2026-04-27 02:23 | 22.79721 | 61.30276 | 38802 ft | 510 kts | 98° |
| 2026-04-27 02:24 | 22.78291 | 61.37795 | 38799 ft | 509 kts | 98° |
| 2026-04-27 02:24 | 22.76860 | 61.45300 | 38795 ft | 509 kts | 98° |
| 2026-04-27 02:25 | 22.75426 | 61.52803 | 38800 ft | 509 kts | 98° |
| 2026-04-27 02:25 | 22.73997 | 61.60263 | 38799 ft | 509 kts | 98° |
| 2026-04-27 02:26 | 22.72555 | 61.67765 | 38800 ft | 509 kts | 98° |
| 2026-04-27 02:26 | 22.71109 | 61.75273 | 38800 ft | 509 kts | 98° |
| 2026-04-27 02:27 | 22.69660 | 61.82772 | 38800 ft | 509 kts | 98° |
| 2026-04-27 02:27 | 22.68216 | 61.90227 | 38800 ft | 509 kts | 98° |
| 2026-04-27 02:28 | 22.66760 | 61.97722 | 38806 ft | 509 kts | 98° |
| 2026-04-27 02:28 | 22.65302 | 62.05214 | 38801 ft | 509 kts | 98° |
| 2026-04-27 02:29 | 22.63837 | 62.12716 | 38809 ft | 509 kts | 98° |
| 2026-04-27 02:29 | 22.62382 | 62.20154 | 38811 ft | 509 kts | 98° |
| 2026-04-27 02:30 | 22.60911 | 62.27651 | 38808 ft | 509 kts | 98° |
| 2026-04-27 02:30 | 22.59439 | 62.35130 | 38808 ft | 508 kts | 98° |
| 2026-04-27 02:31 | 22.57964 | 62.42612 | 38807 ft | 508 kts | 98° |
| 2026-04-27 02:31 | 22.56494 | 62.50047 | 38810 ft | 508 kts | 98° |
| 2026-04-27 02:32 | 22.55012 | 62.57521 | 38812 ft | 508 kts | 98° |
| 2026-04-27 02:32 | 22.53530 | 62.64976 | 38808 ft | 507 kts | 98° |
| 2026-04-27 02:33 | 22.52044 | 62.72437 | 38808 ft | 507 kts | 98° |
| 2026-04-27 02:33 | 22.50569 | 62.79822 | 38811 ft | 506 kts | 98° |
| 2026-04-27 02:34 | 22.49081 | 62.87249 | 38808 ft | 505 kts | 99° |
| 2026-04-27 02:34 | 22.47591 | 62.94676 | 38809 ft | 505 kts | 99° |
| 2026-04-27 02:35 | 22.46099 | 63.02088 | 38813 ft | 505 kts | 99° |
| 2026-04-27 02:35 | 22.44574 | 63.09488 | 38808 ft | 506 kts | 102° |
| 2026-04-27 02:36 | 22.42003 | 63.16545 | 38818 ft | 509 kts | 112° |
| 2026-04-27 02:36 | 22.38957 | 63.23468 | 38811 ft | 510 kts | 114° |
| 2026-04-27 02:37 | 22.35840 | 63.30346 | 38813 ft | 510 kts | 114° |
| 2026-04-27 02:37 | 22.32732 | 63.37223 | 38813 ft | 509 kts | 113° |
| 2026-04-27 02:38 | 22.29658 | 63.44058 | 38816 ft | 508 kts | 113° |
| 2026-04-27 02:38 | 22.26575 | 63.50919 | 38817 ft | 508 kts | 114° |
| 2026-04-27 02:39 | 22.23487 | 63.57783 | 38820 ft | 508 kts | 114° |
| 2026-04-27 02:39 | 22.20400 | 63.64632 | 38821 ft | 508 kts | 114° |
| 2026-04-27 02:40 | 22.17310 | 63.71480 | 38819 ft | 508 kts | 114° |
| 2026-04-27 02:40 | 22.14234 | 63.78286 | 38823 ft | 508 kts | 114° |
| 2026-04-27 02:41 | 22.11141 | 63.85118 | 38823 ft | 506 kts | 114° |
| 2026-04-27 02:41 | 22.08054 | 63.91931 | 38820 ft | 505 kts | 114° |
| 2026-04-27 02:42 | 22.04970 | 63.98727 | 38819 ft | 505 kts | 114° |
| 2026-04-27 02:42 | 22.01901 | 64.05481 | 38831 ft | 505 kts | 114° |
| 2026-04-27 02:43 | 21.98814 | 64.12267 | 38826 ft | 504 kts | 114° |
| 2026-04-27 02:43 | 21.95723 | 64.19050 | 38824 ft | 504 kts | 114° |
| 2026-04-27 02:44 | 21.92633 | 64.25823 | 38827 ft | 504 kts | 114° |
| 2026-04-27 02:44 | 21.89538 | 64.32597 | 38825 ft | 503 kts | 114° |
| 2026-04-27 02:45 | 21.86473 | 64.39296 | 38825 ft | 502 kts | 114° |
| 2026-04-27 02:45 | 21.83394 | 64.46018 | 38828 ft | 501 kts | 114° |
| 2026-04-27 02:46 | 21.80311 | 64.52740 | 38830 ft | 500 kts | 114° |
| 2026-04-27 02:46 | 21.77231 | 64.59449 | 38833 ft | 500 kts | 114° |
| 2026-04-27 02:47 | 21.74162 | 64.66122 | 38830 ft | 501 kts | 114° |
| 2026-04-27 02:47 | 21.71075 | 64.72827 | 38827 ft | 501 kts | 114° |
| 2026-04-27 02:48 | 21.67985 | 64.79528 | 38832 ft | 500 kts | 114° |
| 2026-04-27 02:48 | 21.64898 | 64.86215 | 38832 ft | 499 kts | 114° |
| 2026-04-27 02:49 | 21.61836 | 64.92840 | 38832 ft | 498 kts | 114° |
| 2026-04-27 02:49 | 21.58747 | 64.99514 | 38846 ft | 498 kts | 114° |
| 2026-04-27 02:50 | 21.55661 | 65.06173 | 38839 ft | 499 kts | 114° |
| 2026-04-27 02:50 | 21.52573 | 65.12831 | 38838 ft | 502 kts | 114° |
| 2026-04-27 02:51 | 21.49452 | 65.19547 | 38835 ft | 503 kts | 114° |
| 2026-04-27 02:51 | 21.46326 | 65.26265 | 38835 ft | 502 kts | 114° |
| 2026-04-27 02:52 | 21.43212 | 65.32950 | 38837 ft | 500 kts | 114° |
| 2026-04-27 02:52 | 21.40102 | 65.39616 | 38834 ft | 499 kts | 114° |
| 2026-04-27 02:53 | 21.37017 | 65.46223 | 38834 ft | 499 kts | 114° |
| 2026-04-27 02:53 | 21.33910 | 65.52868 | 38837 ft | 499 kts | 115° |
| 2026-04-27 02:54 | 21.30795 | 65.59521 | 38840 ft | 499 kts | 115° |
| 2026-04-27 02:54 | 21.27683 | 65.66160 | 38842 ft | 498 kts | 115° |
| 2026-04-27 02:55 | 21.24569 | 65.72795 | 38833 ft | 498 kts | 115° |
| 2026-04-27 02:55 | 21.21476 | 65.79376 | 38839 ft | 496 kts | 115° |
| 2026-04-27 02:56 | 21.18371 | 65.85974 | 38840 ft | 496 kts | 115° |
| 2026-04-27 02:56 | 21.15262 | 65.92575 | 38842 ft | 496 kts | 115° |
| 2026-04-27 02:57 | 21.12155 | 65.99165 | 38844 ft | 496 kts | 115° |
| 2026-04-27 02:57 | 21.09129 | 66.05744 | 38840 ft | 495 kts | 115° |
| 2026-04-27 02:58 | 21.06130 | 66.12380 | 38843 ft | 495 kts | 115° |
| 2026-04-27 02:58 | 21.03121 | 66.19009 | 38841 ft | 495 kts | 115° |
| 2026-04-27 02:59 | 21.00103 | 66.25640 | 38845 ft | 494 kts | 115° |
| 2026-04-27 02:59 | 20.97096 | 66.32238 | 38843 ft | 493 kts | 115° |
| 2026-04-27 03:00 | 20.94108 | 66.38788 | 38845 ft | 493 kts | 115° |
| 2026-04-27 03:00 | 20.91092 | 66.45385 | 38845 ft | 493 kts | 115° |
| 2026-04-27 03:01 | 20.88077 | 66.51973 | 38843 ft | 493 kts | 115° |
| 2026-04-27 03:01 | 20.85057 | 66.58564 | 38847 ft | 493 kts | 116° |
| 2026-04-27 03:02 | 20.82059 | 66.65102 | 38843 ft | 493 kts | 116° |
| 2026-04-27 03:02 | 20.79033 | 66.71690 | 38841 ft | 494 kts | 116° |
| 2026-04-27 03:03 | 20.74496 | 66.81556 | 38843 ft | 493 kts | 116° |
| 2026-04-27 03:04 | 20.71471 | 66.88120 | 38840 ft | 493 kts | 116° |
| 2026-04-27 03:04 | 20.68438 | 66.94689 | 38844 ft | 493 kts | 117° |
| 2026-04-27 03:05 | 20.65426 | 67.01211 | 38843 ft | 493 kts | 117° |
| 2026-04-27 03:05 | 20.62392 | 67.07774 | 38843 ft | 493 kts | 117° |
| 2026-04-27 03:06 | 20.59351 | 67.14345 | 38849 ft | 493 kts | 117° |
| 2026-04-27 03:06 | 20.56311 | 67.20901 | 38842 ft | 493 kts | 117° |
| 2026-04-27 03:07 | 20.53285 | 67.27423 | 38841 ft | 493 kts | 117° |
| 2026-04-27 03:07 | 20.50238 | 67.33980 | 38843 ft | 494 kts | 117° |
| 2026-04-27 03:08 | 20.47184 | 67.40546 | 38843 ft | 494 kts | 117° |
| 2026-04-27 03:08 | 20.44131 | 67.47100 | 38843 ft | 494 kts | 117° |
| 2026-04-27 03:09 | 20.41096 | 67.53610 | 38842 ft | 494 kts | 117° |
| 2026-04-27 03:09 | 20.38033 | 67.60170 | 38843 ft | 494 kts | 117° |
| 2026-04-27 03:10 | 20.34969 | 67.66725 | 38843 ft | 494 kts | 117° |
| 2026-04-27 03:10 | 20.31898 | 67.73287 | 38840 ft | 495 kts | 117° |
| 2026-04-27 03:11 | 20.28829 | 67.79837 | 38842 ft | 494 kts | 117° |
| 2026-04-27 03:11 | 20.25778 | 67.86343 | 38843 ft | 494 kts | 118° |
| 2026-04-27 03:12 | 20.22706 | 67.92882 | 38841 ft | 494 kts | 118° |
| 2026-04-27 03:12 | 20.19629 | 67.99426 | 38843 ft | 494 kts | 118° |
| 2026-04-27 03:13 | 20.16553 | 68.05960 | 38845 ft | 494 kts | 118° |
| 2026-04-27 03:13 | 20.13496 | 68.12446 | 38842 ft | 494 kts | 118° |
| 2026-04-27 03:14 | 20.10410 | 68.18985 | 38846 ft | 494 kts | 118° |
| 2026-04-27 03:14 | 20.07326 | 68.25514 | 38843 ft | 495 kts | 118° |
| 2026-04-27 03:15 | 20.04228 | 68.32062 | 38843 ft | 496 kts | 118° |
| 2026-04-27 03:15 | 20.01150 | 68.38562 | 38846 ft | 496 kts | 118° |
| 2026-04-27 03:16 | 19.98044 | 68.45113 | 38844 ft | 496 kts | 118° |
| 2026-04-27 03:16 | 19.94941 | 68.51651 | 38845 ft | 496 kts | 118° |
| 2026-04-27 03:17 | 19.91834 | 68.58191 | 38847 ft | 496 kts | 119° |
| 2026-04-27 03:17 | 19.88716 | 68.64744 | 38845 ft | 497 kts | 119° |
| 2026-04-27 03:18 | 19.85619 | 68.71247 | 38846 ft | 497 kts | 119° |
| 2026-04-27 03:18 | 19.82495 | 68.77798 | 38846 ft | 497 kts | 119° |
| 2026-04-27 03:19 | 19.79373 | 68.84338 | 38843 ft | 496 kts | 119° |
| 2026-04-27 03:19 | 19.76246 | 68.90879 | 38848 ft | 497 kts | 120° |
| 2026-04-27 03:20 | 19.73119 | 68.97415 | 38846 ft | 497 kts | 120° |
| 2026-04-27 03:20 | 19.70005 | 69.03915 | 38847 ft | 497 kts | 120° |
| 2026-04-27 03:21 | 19.66872 | 69.10448 | 38845 ft | 497 kts | 120° |
| 2026-04-27 03:21 | 19.63733 | 69.16986 | 38841 ft | 497 kts | 120° |
| 2026-04-27 03:22 | 19.60595 | 69.23514 | 38842 ft | 497 kts | 120° |
| 2026-04-27 03:22 | 19.57469 | 69.30008 | 38842 ft | 497 kts | 120° |
| 2026-04-27 03:23 | 19.54324 | 69.36540 | 38839 ft | 498 kts | 120° |
| 2026-04-27 03:23 | 19.51195 | 69.43096 | 38842 ft | 498 kts | 120° |
| 2026-04-27 03:24 | 19.48067 | 69.49644 | 38841 ft | 498 kts | 120° |
| 2026-04-27 03:24 | 19.44956 | 69.56144 | 38841 ft | 498 kts | 120° |
| 2026-04-27 03:25 | 19.41820 | 69.62690 | 38841 ft | 498 kts | 120° |
| 2026-04-27 03:25 | 19.38677 | 69.69241 | 38840 ft | 499 kts | 120° |
| 2026-04-27 03:26 | 19.35535 | 69.75782 | 38841 ft | 499 kts | 120° |
| 2026-04-27 03:26 | 19.32389 | 69.82326 | 38838 ft | 498 kts | 120° |
| 2026-04-27 03:27 | 19.29265 | 69.88816 | 38836 ft | 498 kts | 120° |
| 2026-04-27 03:27 | 19.26123 | 69.95343 | 38837 ft | 497 kts | 120° |
| 2026-04-27 03:28 | 19.22978 | 70.01857 | 38834 ft | 497 kts | 120° |
| 2026-04-27 03:28 | 19.19834 | 70.08365 | 38838 ft | 497 kts | 120° |
| 2026-04-27 03:29 | 19.16706 | 70.14834 | 38837 ft | 497 kts | 120° |
| 2026-04-27 03:29 | 19.13584 | 70.21352 | 38835 ft | 498 kts | 118° |
| 2026-04-27 03:29 | 19.12229 | 70.24737 | 38584 ft | 501 kts | 115° |
| 2026-04-27 03:30 | 19.10941 | 70.28176 | 37923 ft | 503 kts | 115° |
| 2026-04-27 03:30 | 19.09666 | 70.31609 | 37326 ft | 503 kts | 115° |
| 2026-04-27 03:30 | 19.08383 | 70.35054 | 36659 ft | 504 kts | 116° |
| 2026-04-27 03:30 | 19.07090 | 70.38512 | 35960 ft | 507 kts | 116° |
| 2026-04-27 03:31 | 19.05800 | 70.41945 | 35236 ft | 511 kts | 117° |
| 2026-04-27 03:31 | 19.04486 | 70.45440 | 34489 ft | 515 kts | 117° |
| 2026-04-27 03:31 | 19.03161 | 70.48977 | 33738 ft | 519 kts | 117° |
| 2026-04-27 03:31 | 19.01823 | 70.52540 | 32948 ft | 522 kts | 117° |
| 2026-04-27 03:32 | 19.00484 | 70.56105 | 32264 ft | 522 kts | 117° |
| 2026-04-27 03:32 | 18.99141 | 70.59678 | 31588 ft | 522 kts | 117° |
| 2026-04-27 03:32 | 18.97802 | 70.63238 | 30929 ft | 522 kts | 117° |
| 2026-04-27 03:32 | 18.96459 | 70.66804 | 30322 ft | 522 kts | 117° |
| 2026-04-27 03:33 | 18.95128 | 70.70331 | 29967 ft | 526 kts | 117° |
| 2026-04-27 03:33 | 18.93766 | 70.73937 | 29851 ft | 530 kts | 117° |
| 2026-04-27 03:33 | 18.92403 | 70.77547 | 29588 ft | 530 kts | 117° |
| 2026-04-27 03:33 | 18.91034 | 70.81172 | 28755 ft | 531 kts | 117° |
| 2026-04-27 03:34 | 18.89682 | 70.84763 | 28333 ft | 522 kts | 116° |
| 2026-04-27 03:34 | 18.88353 | 70.88296 | 27895 ft | 513 kts | 116° |
| 2026-04-27 03:34 | 18.87035 | 70.91781 | 27342 ft | 508 kts | 116° |
| 2026-04-27 03:34 | 18.85727 | 70.95228 | 26812 ft | 503 kts | 116° |
| 2026-04-27 03:35 | 18.84452 | 70.98584 | 26314 ft | 497 kts | 116° |
| 2026-04-27 03:35 | 18.83171 | 71.01956 | 25805 ft | 492 kts | 116° |
| 2026-04-27 03:35 | 18.81904 | 71.05291 | 25305 ft | 487 kts | 116° |
| 2026-04-27 03:35 | 18.80653 | 71.08584 | 24794 ft | 482 kts | 115° |
| 2026-04-27 03:36 | 18.79411 | 71.11851 | 24288 ft | 477 kts | 115° |
| 2026-04-27 03:36 | 18.78180 | 71.15086 | 23782 ft | 472 kts | 115° |
| 2026-04-27 03:36 | 18.76964 | 71.18281 | 23285 ft | 468 kts | 115° |
| 2026-04-27 03:36 | 18.75757 | 71.21452 | 22723 ft | 463 kts | 115° |
| 2026-04-27 03:37 | 18.74576 | 71.24551 | 22180 ft | 459 kts | 115° |
| 2026-04-27 03:37 | 18.73395 | 71.27650 | 21649 ft | 454 kts | 115° |
| 2026-04-27 03:37 | 18.72223 | 71.30724 | 21125 ft | 449 kts | 114° |
| 2026-04-27 03:37 | 18.71063 | 71.33763 | 20614 ft | 445 kts | 114° |
| 2026-04-27 03:38 | 18.69912 | 71.36778 | 20102 ft | 440 kts | 114° |
| 2026-04-27 03:38 | 18.68777 | 71.39749 | 19601 ft | 436 kts | 114° |
| 2026-04-27 03:38 | 18.67648 | 71.42701 | 19106 ft | 431 kts | 114° |
| 2026-04-27 03:38 | 18.66531 | 71.45622 | 18631 ft | 427 kts | 114° |
| 2026-04-27 03:39 | 18.65426 | 71.48510 | 18149 ft | 423 kts | 113° |
| 2026-04-27 03:39 | 18.64333 | 71.51365 | 17602 ft | 419 kts | 113° |
| 2026-04-27 03:39 | 18.63263 | 71.54161 | 17087 ft | 414 kts | 113° |
| 2026-04-27 03:39 | 18.62191 | 71.56956 | 16728 ft | 406 kts | 114° |
| 2026-04-27 03:40 | 18.61151 | 71.59671 | 16515 ft | 394 kts | 113° |
| 2026-04-27 03:40 | 18.60138 | 71.62315 | 16311 ft | 383 kts | 114° |
| 2026-04-27 03:40 | 18.59153 | 71.64885 | 16111 ft | 373 kts | 114° |
| 2026-04-27 03:40 | 18.58193 | 71.67386 | 15939 ft | 363 kts | 114° |
| 2026-04-27 03:41 | 18.57258 | 71.69819 | 15762 ft | 354 kts | 114° |
| 2026-04-27 03:41 | 18.56346 | 71.72191 | 15608 ft | 345 kts | 114° |
| 2026-04-27 03:41 | 18.55457 | 71.74504 | 15469 ft | 336 kts | 114° |
| 2026-04-27 03:41 | 18.54603 | 71.76724 | 15338 ft | 328 kts | 114° |
| 2026-04-27 03:42 | 18.53756 | 71.78927 | 15185 ft | 321 kts | 114° |
| 2026-04-27 03:42 | 18.52922 | 71.81093 | 14951 ft | 317 kts | 114° |
| 2026-04-27 03:42 | 18.52097 | 71.83233 | 14698 ft | 315 kts | 114° |
| 2026-04-27 03:42 | 18.51276 | 71.85362 | 14444 ft | 312 kts | 114° |
| 2026-04-27 03:43 | 18.50462 | 71.87475 | 14173 ft | 310 kts | 114° |
| 2026-04-27 03:43 | 18.49653 | 71.89573 | 13928 ft | 308 kts | 114° |
| 2026-04-27 03:43 | 18.48850 | 71.91651 | 13664 ft | 306 kts | 114° |
| 2026-04-27 03:43 | 18.48059 | 71.93700 | 13325 ft | 306 kts | 113° |
| 2026-04-27 03:44 | 18.47258 | 71.95777 | 12985 ft | 306 kts | 113° |
| 2026-04-27 03:44 | 18.46460 | 71.97844 | 12655 ft | 305 kts | 113° |
| 2026-04-27 03:44 | 18.45662 | 71.99911 | 12340 ft | 304 kts | 113° |
| 2026-04-27 03:44 | 18.44865 | 72.01974 | 12017 ft | 303 kts | 113° |
| 2026-04-27 03:45 | 18.44206 | 72.04070 | 11869 ft | 302 kts | 101° |
| 2026-04-27 03:45 | 18.44178 | 72.06273 | 11632 ft | 302 kts | 79° |
| 2026-04-27 03:45 | 18.44973 | 72.08282 | 11301 ft | 304 kts | 55° |
| 2026-04-27 03:45 | 18.46469 | 72.09832 | 10986 ft | 303 kts | 35° |
| 2026-04-27 03:46 | 18.48245 | 72.11024 | 10695 ft | 302 kts | 31° |
| 2026-04-27 03:46 | 18.50042 | 72.12158 | 10408 ft | 300 kts | 31° |
| 2026-04-27 03:46 | 18.51821 | 72.13286 | 10122 ft | 298 kts | 31° |
| 2026-04-27 03:46 | 18.53588 | 72.14416 | 9907 ft | 296 kts | 31° |
| 2026-04-27 03:47 | 18.55345 | 72.15546 | 9853 ft | 296 kts | 31° |
| 2026-04-27 03:47 | 18.57101 | 72.16679 | 9850 ft | 296 kts | 31° |
| 2026-04-27 03:47 | 18.58853 | 72.17811 | 9850 ft | 296 kts | 31° |
| 2026-04-27 03:47 | 18.60582 | 72.18930 | 9741 ft | 295 kts | 31° |
| 2026-04-27 03:48 | 18.62329 | 72.20062 | 9377 ft | 295 kts | 31° |
| 2026-04-27 03:48 | 18.64068 | 72.21188 | 9072 ft | 293 kts | 31° |
| 2026-04-27 03:48 | 18.65797 | 72.22309 | 8762 ft | 290 kts | 31° |
| 2026-04-27 03:48 | 18.67513 | 72.23422 | 8469 ft | 288 kts | 31° |
| 2026-04-27 03:49 | 18.69217 | 72.24527 | 8168 ft | 286 kts | 30° |
| 2026-04-27 03:49 | 18.70901 | 72.25621 | 7910 ft | 283 kts | 30° |
| 2026-04-27 03:49 | 18.72577 | 72.26709 | 7847 ft | 282 kts | 30° |
| 2026-04-27 03:49 | 18.74250 | 72.27795 | 7841 ft | 282 kts | 30° |
| 2026-04-27 03:50 | 18.75922 | 72.28880 | 7842 ft | 282 kts | 30° |
| 2026-04-27 03:50 | 18.77568 | 72.29949 | 7842 ft | 282 kts | 30° |
| 2026-04-27 03:50 | 18.79232 | 72.31036 | 7844 ft | 282 kts | 31° |
| 2026-04-27 03:50 | 18.80775 | 72.32320 | 7844 ft | 283 kts | 40° |
| 2026-04-27 03:51 | 18.82220 | 72.33732 | 7843 ft | 283 kts | 42° |
| 2026-04-27 03:51 | 18.83643 | 72.35172 | 7842 ft | 283 kts | 43° |
| 2026-04-27 03:51 | 18.85052 | 72.36619 | 7842 ft | 283 kts | 43° |
| 2026-04-27 03:51 | 18.86461 | 72.38075 | 7842 ft | 283 kts | 43° |
| 2026-04-27 03:52 | 18.87839 | 72.39504 | 7634 ft | 280 kts | 43° |
| 2026-04-27 03:52 | 18.89222 | 72.40942 | 7298 ft | 279 kts | 43° |
| 2026-04-27 03:52 | 18.90604 | 72.42380 | 6989 ft | 278 kts | 43° |
| 2026-04-27 03:52 | 18.91977 | 72.43810 | 6682 ft | 276 kts | 42° |
| 2026-04-27 03:53 | 18.93337 | 72.45228 | 6381 ft | 274 kts | 42° |
| 2026-04-27 03:53 | 18.94678 | 72.46627 | 5944 ft | 268 kts | 42° |
| 2026-04-27 03:53 | 18.95998 | 72.48005 | 5359 ft | 264 kts | 41° |
| 2026-04-27 03:53 | 18.97278 | 72.49342 | 4941 ft | 254 kts | 41° |
| 2026-04-27 03:54 | 18.98511 | 72.50630 | 4766 ft | 249 kts | 40° |
| 2026-04-27 03:54 | 18.99729 | 72.51899 | 4508 ft | 248 kts | 40° |
| 2026-04-27 03:54 | 19.00957 | 72.53180 | 4204 ft | 248 kts | 40° |
| 2026-04-27 03:54 | 19.02182 | 72.54457 | 3891 ft | 247 kts | 40° |
| 2026-04-27 03:55 | 19.03401 | 72.55729 | 3601 ft | 246 kts | 41° |
| 2026-04-27 03:55 | 19.04621 | 72.57002 | 3289 ft | 246 kts | 41° |
| 2026-04-27 03:55 | 19.05827 | 72.58264 | 3116 ft | 240 kts | 41° |
| 2026-04-27 03:55 | 19.06995 | 72.59488 | 3015 ft | 232 kts | 41° |
| 2026-04-27 03:56 | 19.08017 | 72.60787 | 2978 ft | 232 kts | 56° |
| 2026-04-27 03:56 | 19.08513 | 72.62403 | 2981 ft | 237 kts | 80° |
| 2026-04-27 03:56 | 19.08566 | 72.64107 | 2976 ft | 226 kts | 86° |
| 2026-04-27 03:56 | 19.08557 | 72.65747 | 2981 ft | 221 kts | 85° |
| 2026-04-27 03:57 | 19.08575 | 72.67370 | 2983 ft | 220 kts | 84° |
| 2026-04-27 03:57 | 19.08608 | 72.68954 | 2867 ft | 213 kts | 84° |
| 2026-04-27 03:57 | 19.08648 | 72.70496 | 2627 ft | 206 kts | 85° |
| 2026-04-27 03:57 | 19.08666 | 72.71981 | 2366 ft | 198 kts | 86° |
| 2026-04-27 03:58 | 19.08684 | 72.73411 | 2072 ft | 191 kts | 87° |
| 2026-04-27 03:58 | 19.08705 | 72.74787 | 1826 ft | 183 kts | 88° |
| 2026-04-27 03:58 | 19.08723 | 72.76086 | 1611 ft | 174 kts | 90° |
| 2026-04-27 03:58 | 19.08741 | 72.77330 | 1393 ft | 166 kts | 91° |
| 2026-04-27 03:59 | 19.08757 | 72.78509 | 1168 ft | 154 kts | 91° |
| 2026-04-27 03:59 | 19.08772 | 72.79586 | 984 ft | 141 kts | 90° |
| 2026-04-27 03:59 | 19.08786 | 72.80610 | 828 ft | 139 kts | 91° |
| 2026-04-27 03:59 | 19.08800 | 72.81637 | 662 ft | 140 kts | 91° |
| 2026-04-27 04:00 | 19.08814 | 72.82672 | 487 ft | 142 kts | 91° |
| 2026-04-27 04:00 | 19.08830 | 72.83712 | 321 ft | 141 kts | 91° |
| 2026-04-27 04:00 | 19.08842 | 72.84736 | 145 ft | 141 kts | 91° |
| 2026-04-27 04:00 | 19.08857 | 72.85759 | 61 ft | 135 kts | 92° |
| 2026-04-27 04:01 | 19.08868 | 72.86616 | 47 ft | 98 kts | 90° |
| 2026-04-27 04:01 | 19.08877 | 72.87232 | 53 ft | 63 kts | 89° |
| 2026-04-27 04:01 | 19.08883 | 72.87431 | 47 ft | 4 kts | 70° |
| 2026-04-27 04:01 | 19.08902 | 72.87444 | 49 ft | 4 kts | 27° |
| 2026-04-27 04:02 | 19.08936 | 72.87451 | 51 ft | 6 kts | 8° |
| 2026-04-27 04:02 | 19.08985 | 72.87454 | 46 ft | 8 kts | 1° |
| 2026-04-27 04:02 | 19.09045 | 72.87454 | 52 ft | 10 kts | 360° |
| 2026-04-27 04:02 | 19.09107 | 72.87458 | 49 ft | 9 kts | 16° |
| 2026-04-27 04:03 | 19.09137 | 72.87509 | 49 ft | 9 kts | 81° |
| 2026-04-27 04:03 | 19.09140 | 72.87579 | 48 ft | 10 kts | 86° |
| 2026-04-27 04:03 | 19.09151 | 72.87653 | 52 ft | 9 kts | 60° |
| 2026-04-27 04:03 | 19.09205 | 72.87672 | 48 ft | 9 kts | 5° |
| 2026-04-27 04:04 | 19.09268 | 72.87662 | 50 ft | 9 kts | 332° |
| 2026-04-27 04:04 | 19.09315 | 72.87609 | 49 ft | 11 kts | 309° |
| 2026-04-27 04:04 | 19.09366 | 72.87545 | 49 ft | 12 kts | 310° |
| 2026-04-27 04:04 | 19.09415 | 72.87476 | 48 ft | 12 kts | 297° |
| 2026-04-27 04:05 | 19.09474 | 72.87433 | 46 ft | 7 kts | 344° |
| 2026-04-27 04:05 | 19.09493 | 72.87428 | 48 ft | 3 kts | 346° |
| 2026-04-27 04:05 | 19.09513 | 72.87423 | 49 ft | 3 kts | 346° |
| 2026-04-27 04:05 | 19.09520 | 72.87421 | 47 ft | 0 kts | 346° |